sensor_id;sensor_type;location;lat;lon;timestamp;pressure;altitude;pressure_sealevel;temperature;humidity
38253;BME280;24785;52.372;20.672;2022-09-09T00:00:14;100502.94;;;11.74;100.00
38253;BME280;24785;52.372;20.672;2022-09-09T00:10:39;100503.03;;;11.64;100.00
38253;BME280;24785;52.372;20.672;2022-09-09T00:30:53;100487.41;;;11.22;100.00
38253;BME280;24785;52.372;20.672;2022-09-09T00:41:07;100476.22;;;11.10;100.00
38253;BME280;24785;52.372;20.672;2022-09-09T00:51:25;100456.16;;;11.02;100.00
38253;BME280;24785;52.372;20.672;2022-09-09T01:01:28;100460.69;;;11.07;100.00
38253;BME280;24785;52.372;20.672;2022-09-09T01:22:22;100443.00;;;11.00;100.00
38253;BME280;24785;52.372;20.672;2022-09-09T01:32:56;100431.75;;;10.98;100.00
38253;BME280;24785;52.372;20.672;2022-09-09T01:42:59;100416.50;;;10.94;100.00
38253;BME280;24785;52.372;20.672;2022-09-09T01:53:01;100421.81;;;11.04;100.00
38253;BME280;24785;52.372;20.672;2022-09-09T02:13:13;100403.06;;;10.99;100.00
38253;BME280;24785;52.372;20.672;2022-09-09T02:23:14;100400.13;;;11.00;100.00
38253;BME280;24785;52.372;20.672;2022-09-09T02:33:16;100400.88;;;11.06;100.00
38253;BME280;24785;52.372;20.672;2022-09-09T02:43:17;100403.28;;;11.08;100.00
38253;BME280;24785;52.372;20.672;2022-09-09T02:53:30;100402.25;;;11.03;100.00
38253;BME280;24785;52.372;20.672;2022-09-09T03:03:33;100396.88;;;11.03;100.00
38253;BME280;24785;52.372;20.672;2022-09-09T03:13:34;100414.50;;;11.15;100.00
38253;BME280;24785;52.372;20.672;2022-09-09T03:23:35;100397.13;;;11.07;100.00
38253;BME280;24785;52.372;20.672;2022-09-09T03:33:37;100394.69;;;11.11;100.00
38253;BME280;24785;52.372;20.672;2022-09-09T03:43:38;100389.59;;;11.09;100.00
38253;BME280;24785;52.372;20.672;2022-09-09T03:53:40;100388.53;;;11.10;100.00
38253;BME280;24785;52.372;20.672;2022-09-09T04:03:41;100397.84;;;11.18;100.00
38253;BME280;24785;52.372;20.672;2022-09-09T04:13:42;100381.28;;;11.11;100.00
38253;BME280;24785;52.372;20.672;2022-09-09T04:23:44;100392.22;;;11.19;100.00
38253;BME280;24785;52.372;20.672;2022-09-09T04:33:46;100385.50;;;11.22;100.00
38253;BME280;24785;52.372;20.672;2022-09-09T04:43:47;100392.69;;;11.26;100.00
38253;BME280;24785;52.372;20.672;2022-09-09T04:53:47;100389.69;;;11.33;100.00
38253;BME280;24785;52.372;20.672;2022-09-09T05:03:49;100395.06;;;11.33;100.00
38253;BME280;24785;52.372;20.672;2022-09-09T05:13:51;100394.50;;;11.41;100.00
38253;BME280;24785;52.372;20.672;2022-09-09T05:23:52;100404.13;;;11.47;100.00
38253;BME280;24785;52.372;20.672;2022-09-09T05:33:53;100402.19;;;11.53;100.00
38253;BME280;24785;52.372;20.672;2022-09-09T05:43:54;100398.63;;;11.62;100.00
38253;BME280;24785;52.372;20.672;2022-09-09T05:53:55;100394.81;;;11.68;100.00
38253;BME280;24785;52.372;20.672;2022-09-09T06:03:59;100410.06;;;11.73;100.00
38253;BME280;24785;52.372;20.672;2022-09-09T06:14:00;100414.84;;;11.86;100.00
38253;BME280;24785;52.372;20.672;2022-09-09T06:24:01;100418.34;;;11.87;100.00
38253;BME280;24785;52.372;20.672;2022-09-09T06:34:05;100427.09;;;11.97;100.00
38253;BME280;24785;52.372;20.672;2022-09-09T06:44:07;100441.97;;;12.14;100.00
38253;BME280;24785;52.372;20.672;2022-09-09T06:54:08;100444.84;;;12.22;100.00
38253;BME280;24785;52.372;20.672;2022-09-09T07:04:09;100445.66;;;12.23;100.00
38253;BME280;24785;52.372;20.672;2022-09-09T07:14:12;100456.44;;;12.47;100.00
38253;BME280;24785;52.372;20.672;2022-09-09T07:24:17;100456.16;;;12.72;100.00
38253;BME280;24785;52.372;20.672;2022-09-09T07:34:18;100482.66;;;12.84;100.00
38253;BME280;24785;52.372;20.672;2022-09-09T07:44:21;100493.38;;;13.08;100.00
38253;BME280;24785;52.372;20.672;2022-09-09T07:54:23;100523.97;;;13.41;100.00
38253;BME280;24785;52.372;20.672;2022-09-09T08:04:25;100552.47;;;13.42;100.00
38253;BME280;24785;52.372;20.672;2022-09-09T08:14:26;100566.88;;;13.51;100.00
38253;BME280;24785;52.372;20.672;2022-09-09T08:24:28;100576.66;;;13.66;100.00
38253;BME280;24785;52.372;20.672;2022-09-09T08:34:29;100580.16;;;13.66;100.00
38253;BME280;24785;52.372;20.672;2022-09-09T08:54:35;100577.47;;;13.85;100.00
38253;BME280;24785;52.372;20.672;2022-09-09T09:04:45;100594.22;;;14.20;100.00
38253;BME280;24785;52.372;20.672;2022-09-09T09:14:50;100600.25;;;14.49;100.00
38253;BME280;24785;52.372;20.672;2022-09-09T09:24:53;100623.69;;;14.67;100.00
38253;BME280;24785;52.372;20.672;2022-09-09T09:34:56;100621.63;;;14.78;100.00
38253;BME280;24785;52.372;20.672;2022-09-09T09:45:08;100629.81;;;14.87;100.00
38253;BME280;24785;52.372;20.672;2022-09-09T09:55:13;100625.72;;;14.89;100.00
38253;BME280;24785;52.372;20.672;2022-09-09T10:15:38;100636.13;;;14.63;100.00
38253;BME280;24785;52.372;20.672;2022-09-09T10:26:02;100642.00;;;14.52;100.00
38253;BME280;24785;52.372;20.672;2022-09-09T10:36:41;100653.91;;;14.64;100.00
38253;BME280;24785;52.372;20.672;2022-09-09T10:46:53;100675.09;;;14.90;100.00
38253;BME280;24785;52.372;20.672;2022-09-09T10:57:03;100682.06;;;14.77;100.00
38253;BME280;24785;52.372;20.672;2022-09-09T11:07:10;100689.47;;;15.18;100.00
38253;BME280;24785;52.372;20.672;2022-09-09T11:17:19;100674.63;;;15.01;100.00
38253;BME280;24785;52.372;20.672;2022-09-09T11:48:23;100694.97;;;14.80;100.00
38253;BME280;24785;52.372;20.672;2022-09-09T11:58:25;100697.88;;;15.16;100.00
38253;BME280;24785;52.372;20.672;2022-09-09T12:08:28;100707.78;;;15.34;100.00
38253;BME280;24785;52.372;20.672;2022-09-09T12:18:36;100695.03;;;15.07;100.00
38253;BME280;24785;52.372;20.672;2022-09-09T12:39:14;100703.75;;;14.86;100.00
38253;BME280;24785;52.372;20.672;2022-09-09T12:49:31;100689.84;;;14.78;100.00
38253;BME280;24785;52.372;20.672;2022-09-09T12:59:37;100690.91;;;14.96;100.00
38253;BME280;24785;52.372;20.672;2022-09-09T13:09:38;100679.38;;;14.77;100.00
38253;BME280;24785;52.372;20.672;2022-09-09T13:19:43;100662.81;;;14.65;100.00
38253;BME280;24785;52.372;20.672;2022-09-09T13:29:52;100672.50;;;14.66;100.00
38253;BME280;24785;52.372;20.672;2022-09-09T13:39:55;100664.19;;;14.62;100.00
38253;BME280;24785;52.372;20.672;2022-09-09T13:49:56;100664.59;;;14.56;100.00
38253;BME280;24785;52.372;20.672;2022-09-09T13:59:57;100659.16;;;14.74;100.00
38253;BME280;24785;52.372;20.672;2022-09-09T14:09:57;100675.41;;;15.02;100.00
38253;BME280;24785;52.372;20.672;2022-09-09T14:20:00;100676.47;;;15.33;100.00
38253;BME280;24785;52.372;20.672;2022-09-09T14:30:02;100708.44;;;15.72;100.00
38253;BME280;24785;52.372;20.672;2022-09-09T14:40:03;100682.28;;;15.54;100.00
38253;BME280;24785;52.372;20.672;2022-09-09T14:50:05;100699.00;;;15.56;100.00
38253;BME280;24785;52.372;20.672;2022-09-09T15:00:07;100697.47;;;15.23;100.00
38253;BME280;24785;52.372;20.672;2022-09-09T15:10:09;100693.13;;;15.08;100.00
38253;BME280;24785;52.372;20.672;2022-09-09T15:20:10;100692.66;;;15.20;100.00
38253;BME280;24785;52.372;20.672;2022-09-09T15:30:11;100704.47;;;15.24;100.00
38253;BME280;24785;52.372;20.672;2022-09-09T15:40:13;100704.41;;;15.10;100.00
38253;BME280;24785;52.372;20.672;2022-09-09T15:50:16;100688.75;;;14.79;100.00
38253;BME280;24785;52.372;20.672;2022-09-09T16:00:18;100670.69;;;14.61;100.00
38253;BME280;24785;52.372;20.672;2022-09-09T16:10:19;100680.13;;;14.45;100.00
38253;BME280;24785;52.372;20.672;2022-09-09T16:20:20;100660.56;;;14.34;100.00
38253;BME280;24785;52.372;20.672;2022-09-09T16:30:21;100658.75;;;14.11;100.00
38253;BME280;24785;52.372;20.672;2022-09-09T16:40:22;100651.59;;;14.01;100.00
38253;BME280;24785;52.372;20.672;2022-09-09T16:50:23;100637.53;;;13.85;100.00
38253;BME280;24785;52.372;20.672;2022-09-09T17:00:24;100638.69;;;13.79;100.00
38253;BME280;24785;52.372;20.672;2022-09-09T17:10:25;100650.56;;;13.78;100.00
38253;BME280;24785;52.372;20.672;2022-09-09T17:20:26;100660.19;;;13.84;100.00
38253;BME280;24785;52.372;20.672;2022-09-09T17:30:26;100680.28;;;13.92;100.00
38253;BME280;24785;52.372;20.672;2022-09-09T17:40:27;100689.81;;;13.84;100.00
38253;BME280;24785;52.372;20.672;2022-09-09T17:50:28;100681.50;;;13.81;100.00
38253;BME280;24785;52.372;20.672;2022-09-09T18:00:29;100695.56;;;13.78;100.00
38253;BME280;24785;52.372;20.672;2022-09-09T18:10:31;100699.91;;;13.74;100.00
38253;BME280;24785;52.372;20.672;2022-09-09T18:20:31;100706.78;;;13.61;100.00
38253;BME280;24785;52.372;20.672;2022-09-09T18:30:38;100703.00;;;13.62;100.00
38253;BME280;24785;52.372;20.672;2022-09-09T18:40:39;100714.41;;;13.54;100.00
38253;BME280;24785;52.372;20.672;2022-09-09T18:50:40;100720.88;;;13.53;100.00
38253;BME280;24785;52.372;20.672;2022-09-09T19:00:45;100712.50;;;13.54;100.00
38253;BME280;24785;52.372;20.672;2022-09-09T19:10:46;100720.13;;;13.47;100.00
38253;BME280;24785;52.372;20.672;2022-09-09T19:20:47;100718.81;;;13.45;100.00
38253;BME280;24785;52.372;20.672;2022-09-09T19:30:48;100710.44;;;13.46;100.00
38253;BME280;24785;52.372;20.672;2022-09-09T19:40:49;100714.22;;;13.45;100.00
38253;BME280;24785;52.372;20.672;2022-09-09T19:50:50;100718.84;;;13.40;100.00
38253;BME280;24785;52.372;20.672;2022-09-09T20:00:51;100712.94;;;13.38;100.00
38253;BME280;24785;52.372;20.672;2022-09-09T20:10:53;100707.41;;;13.29;100.00
38253;BME280;24785;52.372;20.672;2022-09-09T20:21:03;100736.09;;;13.39;100.00
38253;BME280;24785;52.372;20.672;2022-09-09T20:31:10;100737.06;;;13.48;100.00
38253;BME280;24785;52.372;20.672;2022-09-09T20:41:13;100731.50;;;13.39;100.00
38253;BME280;24785;52.372;20.672;2022-09-09T20:51:14;100736.16;;;13.34;100.00
38253;BME280;24785;52.372;20.672;2022-09-09T21:01:20;100734.03;;;13.31;100.00
38253;BME280;24785;52.372;20.672;2022-09-09T21:11:21;100748.56;;;13.30;100.00
38253;BME280;24785;52.372;20.672;2022-09-09T21:21:22;100758.88;;;13.17;100.00
38253;BME280;24785;52.372;20.672;2022-09-09T21:31:23;100754.16;;;12.99;100.00
38253;BME280;24785;52.372;20.672;2022-09-09T21:41:24;100750.16;;;12.97;100.00
38253;BME280;24785;52.372;20.672;2022-09-09T21:51:25;100746.41;;;12.92;100.00
38253;BME280;24785;52.372;20.672;2022-09-09T22:01:26;100733.28;;;12.86;100.00
38253;BME280;24785;52.372;20.672;2022-09-09T22:11:27;100731.38;;;12.91;100.00
38253;BME280;24785;52.372;20.672;2022-09-09T22:21:30;100729.25;;;12.88;100.00
38253;BME280;24785;52.372;20.672;2022-09-09T22:31:33;100707.47;;;12.85;100.00
38253;BME280;24785;52.372;20.672;2022-09-09T22:41:34;100717.72;;;12.83;100.00
38253;BME280;24785;52.372;20.672;2022-09-09T22:51:35;100705.13;;;12.78;100.00
38253;BME280;24785;52.372;20.672;2022-09-09T23:01:36;100706.41;;;12.86;100.00
38253;BME280;24785;52.372;20.672;2022-09-09T23:11:38;100699.03;;;12.97;100.00
38253;BME280;24785;52.372;20.672;2022-09-09T23:21:39;100706.22;;;13.06;100.00
38253;BME280;24785;52.372;20.672;2022-09-09T23:31:42;100700.22;;;12.85;100.00
38253;BME280;24785;52.372;20.672;2022-09-09T23:41:44;100691.31;;;12.90;100.00
38253;BME280;24785;52.372;20.672;2022-09-09T23:51:48;100688.09;;;12.88;100.00
